메인 페이지
METAR-TAF:

METAR-TAF

공항 :

네타지 수바스 찬드라 보스 국제공항

콜카타, 인도

위도: 22-39N, 경도: 088-27E, 고도: 4m

현재 날씨관측

예보는 39분 전, 10:00시(UTC)에 발표되었습니다.
5kt
온도 26°C
습도 39%
기압 1016 hPa
시정: 4000m
고도 2000ft 상공 구름 조금
고도 10000ft 상공 구름 보통
연무

METAR: VECC 151000Z 36005KT 4000 HZ FEW020 SCT100 26/11 Q1016 NOSIG

시각: 16:09 (10:39 UTC)

예보

예보는 5 시간 39분 전, 05:00시(UTC)에 발표되었습니다.
예보 대상 시간: 15일 06시부터 16일 12시까지 (UTC)
5kt
시정: 3500m
고도 2000ft 상공 구름 조금
고도 10000ft 상공 구름 보통
연무
전환 중
15일 16시부터 15일 18시까지 (UTC)
시정: 2400m
연무
전환 중
16일 04시부터 16일 06시까지 (UTC)
시정: 3500m
연무

TAF: VECC 150500Z 1506/1612 36005KT 3500 HZ FEW020 SCT100 BECMG 1516/1518 2400 HZ BECMG 1604/1606 3500 HZ

4,000개 이상의 공항 관측 자료 및 예보 (METAR 및 TAF 보고).

지도상에서 검색 가능한 기상관측소가 노란 점과 빨간 점으로 표시되어 있습니다.

기상관측소 명을 보려면 표시 위로 마우스를 이동하세요.

날씨 관측과 예보를 보려면 클릭하세요.

지도 변경 : 확대하려면 엑스 표시가 있는 녹색 버튼, 축소하려면 빼기 표시가 있는 녹색 버튼, 다음 페이지의 지도를 보려면 녹색 화살표를 클릭하세요.


METAR-TAF: